sensor_id;sensor_type;location;lat;lon;timestamp;temperature;humidity
32640;DHT22;19049;52.524;11.468;2022-07-29T00:01:31;12.30;65.60
32640;DHT22;19049;52.524;11.468;2022-07-29T00:03:57;12.20;65.70
32640;DHT22;19049;52.524;11.468;2022-07-29T00:06:30;12.20;66.60
32640;DHT22;19049;52.524;11.468;2022-07-29T00:08:56;12.20;65.80
32640;DHT22;19049;52.524;11.468;2022-07-29T00:11:25;12.10;66.70
32640;DHT22;19049;52.524;11.468;2022-07-29T00:13:50;12.10;66.60
32640;DHT22;19049;52.524;11.468;2022-07-29T00:16:18;12.10;66.40
32640;DHT22;19049;52.524;11.468;2022-07-29T00:18:49;12.00;66.50
32640;DHT22;19049;52.524;11.468;2022-07-29T00:21:16;11.90;67.30
32640;DHT22;19049;52.524;11.468;2022-07-29T00:23:42;11.90;67.10
32640;DHT22;19049;52.524;11.468;2022-07-29T00:26:07;11.80;67.30
32640;DHT22;19049;52.524;11.468;2022-07-29T00:28:37;11.80;67.40
32640;DHT22;19049;52.524;11.468;2022-07-29T00:31:12;11.80;67.90
32640;DHT22;19049;52.524;11.468;2022-07-29T00:33:41;11.70;68.40
32640;DHT22;19049;52.524;11.468;2022-07-29T00:36:06;11.70;67.70
32640;DHT22;19049;52.524;11.468;2022-07-29T00:38:35;11.70;67.90
32640;DHT22;19049;52.524;11.468;2022-07-29T00:41:01;11.60;68.40
32640;DHT22;19049;52.524;11.468;2022-07-29T00:43:27;11.60;68.40
32640;DHT22;19049;52.524;11.468;2022-07-29T00:45:52;11.50;68.90
32640;DHT22;19049;52.524;11.468;2022-07-29T00:48:18;11.50;69.30
32640;DHT22;19049;52.524;11.468;2022-07-29T00:50:44;11.50;69.40
32640;DHT22;19049;52.524;11.468;2022-07-29T00:53:12;11.50;69.00
32640;DHT22;19049;52.524;11.468;2022-07-29T00:55:38;11.50;69.20
32640;DHT22;19049;52.524;11.468;2022-07-29T00:58:04;11.40;69.20
32640;DHT22;19049;52.524;11.468;2022-07-29T01:00:36;11.40;69.40
32640;DHT22;19049;52.524;11.468;2022-07-29T01:03:02;11.40;69.60
32640;DHT22;19049;52.524;11.468;2022-07-29T01:05:31;11.40;69.50
32640;DHT22;19049;52.524;11.468;2022-07-29T01:07:57;11.40;70.00
32640;DHT22;19049;52.524;11.468;2022-07-29T01:10:37;11.40;70.20
32640;DHT22;19049;52.524;11.468;2022-07-29T01:13:03;11.40;70.30
32640;DHT22;19049;52.524;11.468;2022-07-29T01:15:30;11.40;70.20
32640;DHT22;19049;52.524;11.468;2022-07-29T01:18:11;11.50;70.40
32640;DHT22;19049;52.524;11.468;2022-07-29T01:26:27;11.50;71.60
32640;DHT22;19049;52.524;11.468;2022-07-29T01:29:03;11.50;70.70
32640;DHT22;19049;52.524;11.468;2022-07-29T01:31:45;11.50;70.90
32640;DHT22;19049;52.524;11.468;2022-07-29T01:34:18;11.60;71.50
32640;DHT22;19049;52.524;11.468;2022-07-29T01:36:51;11.60;71.80
32640;DHT22;19049;52.524;11.468;2022-07-29T01:39:38;11.70;71.90
32640;DHT22;19049;52.524;11.468;2022-07-29T01:42:15;11.60;72.40
32640;DHT22;19049;52.524;11.468;2022-07-29T01:45:14;11.60;72.00
32640;DHT22;19049;52.524;11.468;2022-07-29T01:47:54;11.60;72.30
32640;DHT22;19049;52.524;11.468;2022-07-29T01:50:29;11.60;71.90
32640;DHT22;19049;52.524;11.468;2022-07-29T01:52:59;11.70;71.90
32640;DHT22;19049;52.524;11.468;2022-07-29T01:55:29;11.70;72.00
32640;DHT22;19049;52.524;11.468;2022-07-29T01:57:57;11.70;72.30
32640;DHT22;19049;52.524;11.468;2022-07-29T02:00:41;11.70;72.30
32640;DHT22;19049;52.524;11.468;2022-07-29T02:03:13;11.70;72.40
32640;DHT22;19049;52.524;11.468;2022-07-29T02:05:45;11.80;72.90
32640;DHT22;19049;52.524;11.468;2022-07-29T02:08:15;11.80;72.80
32640;DHT22;19049;52.524;11.468;2022-07-29T02:10:46;11.80;72.80
32640;DHT22;19049;52.524;11.468;2022-07-29T02:13:27;11.80;72.80
32640;DHT22;19049;52.524;11.468;2022-07-29T02:16:03;11.80;73.00
32640;DHT22;19049;52.524;11.468;2022-07-29T02:18:34;11.80;73.10
32640;DHT22;19049;52.524;11.468;2022-07-29T02:21:01;11.90;73.40
32640;DHT22;19049;52.524;11.468;2022-07-29T02:24:18;11.90;73.40
32640;DHT22;19049;52.524;11.468;2022-07-29T02:26:32;11.90;73.70
32640;DHT22;19049;52.524;11.468;2022-07-29T02:29:08;11.90;73.90
32640;DHT22;19049;52.524;11.468;2022-07-29T02:31:37;12.00;74.60
32640;DHT22;19049;52.524;11.468;2022-07-29T02:34:16;12.00;74.10
32640;DHT22;19049;52.524;11.468;2022-07-29T02:36:45;12.00;74.60
32640;DHT22;19049;52.524;11.468;2022-07-29T02:39:13;12.10;74.70
32640;DHT22;19049;52.524;11.468;2022-07-29T02:41:58;12.20;74.70
32640;DHT22;19049;52.524;11.468;2022-07-29T02:44:32;12.40;74.90
32640;DHT22;19049;52.524;11.468;2022-07-29T02:47:18;12.50;75.50
32640;DHT22;19049;52.524;11.468;2022-07-29T02:49:55;12.70;76.10
32640;DHT22;19049;52.524;11.468;2022-07-29T02:52:37;12.90;75.30
32640;DHT22;19049;52.524;11.468;2022-07-29T03:01:27;13.40;74.80
32640;DHT22;19049;52.524;11.468;2022-07-29T03:04:07;13.60;74.60
32640;DHT22;19049;52.524;11.468;2022-07-29T03:06:55;13.80;74.80
32640;DHT22;19049;52.524;11.468;2022-07-29T03:09:24;14.00;74.40
32640;DHT22;19049;52.524;11.468;2022-07-29T03:12:00;14.10;73.80
32640;DHT22;19049;52.524;11.468;2022-07-29T03:14:35;14.20;73.60
32640;DHT22;19049;52.524;11.468;2022-07-29T03:17:13;14.40;73.70
32640;DHT22;19049;52.524;11.468;2022-07-29T03:19:39;14.60;73.50
32640;DHT22;19049;52.524;11.468;2022-07-29T03:22:29;14.70;73.00
32640;DHT22;19049;52.524;11.468;2022-07-29T03:25:19;14.90;73.00
32640;DHT22;19049;52.524;11.468;2022-07-29T03:30:43;15.10;72.60
32640;DHT22;19049;52.524;11.468;2022-07-29T03:33:17;15.20;72.50
32640;DHT22;19049;52.524;11.468;2022-07-29T03:35:52;15.20;72.20
32640;DHT22;19049;52.524;11.468;2022-07-29T03:38:24;15.20;72.10
32640;DHT22;19049;52.524;11.468;2022-07-29T03:41:17;15.30;71.80
32640;DHT22;19049;52.524;11.468;2022-07-29T03:43:43;15.30;71.70
32640;DHT22;19049;52.524;11.468;2022-07-29T03:46:20;15.40;71.40
32640;DHT22;19049;52.524;11.468;2022-07-29T03:48:53;15.30;71.40
32640;DHT22;19049;52.524;11.468;2022-07-29T03:51:30;15.30;71.70
32640;DHT22;19049;52.524;11.468;2022-07-29T03:54:04;15.40;72.00
32640;DHT22;19049;52.524;11.468;2022-07-29T03:56:38;15.40;71.80
32640;DHT22;19049;52.524;11.468;2022-07-29T03:59:08;15.40;71.90
32640;DHT22;19049;52.524;11.468;2022-07-29T04:01:37;15.50;71.70
32640;DHT22;19049;52.524;11.468;2022-07-29T04:04:04;15.50;71.50
32640;DHT22;19049;52.524;11.468;2022-07-29T04:06:38;15.50;71.40
32640;DHT22;19049;52.524;11.468;2022-07-29T04:09:07;15.60;71.70
32640;DHT22;19049;52.524;11.468;2022-07-29T04:11:33;15.60;71.70
32640;DHT22;19049;52.524;11.468;2022-07-29T04:13:58;15.50;71.30
32640;DHT22;19049;52.524;11.468;2022-07-29T04:16:24;15.50;71.30
32640;DHT22;19049;52.524;11.468;2022-07-29T04:18:50;15.60;71.40
32640;DHT22;19049;52.524;11.468;2022-07-29T04:21:15;15.60;71.40
32640;DHT22;19049;52.524;11.468;2022-07-29T04:24:01;15.60;71.70
32640;DHT22;19049;52.524;11.468;2022-07-29T04:26:27;15.50;72.00
32640;DHT22;19049;52.524;11.468;2022-07-29T04:29:13;15.50;71.50
32640;DHT22;19049;52.524;11.468;2022-07-29T04:31:40;15.50;72.60
32640;DHT22;19049;52.524;11.468;2022-07-29T04:34:15;15.50;72.20
32640;DHT22;19049;52.524;11.468;2022-07-29T04:36:43;15.50;72.80
32640;DHT22;19049;52.524;11.468;2022-07-29T04:39:09;15.50;72.20
32640;DHT22;19049;52.524;11.468;2022-07-29T04:41:55;15.50;72.20
32640;DHT22;19049;52.524;11.468;2022-07-29T04:44:21;15.50;72.80
32640;DHT22;19049;52.524;11.468;2022-07-29T04:46:47;15.40;72.50
32640;DHT22;19049;52.524;11.468;2022-07-29T04:49:15;15.40;73.40
32640;DHT22;19049;52.524;11.468;2022-07-29T04:51:53;15.40;72.80
32640;DHT22;19049;52.524;11.468;2022-07-29T04:57:32;15.60;73.60
32640;DHT22;19049;52.524;11.468;2022-07-29T05:00:18;15.60;73.50
32640;DHT22;19049;52.524;11.468;2022-07-29T05:02:58;15.70;73.40
32640;DHT22;19049;52.524;11.468;2022-07-29T05:05:34;15.80;73.00
32640;DHT22;19049;52.524;11.468;2022-07-29T05:08:00;15.90;73.30
32640;DHT22;19049;52.524;11.468;2022-07-29T05:10:31;16.00;72.80
32640;DHT22;19049;52.524;11.468;2022-07-29T05:13:07;16.10;72.90
32640;DHT22;19049;52.524;11.468;2022-07-29T05:15:42;16.30;73.40
32640;DHT22;19049;52.524;11.468;2022-07-29T05:18:07;16.30;73.10
32640;DHT22;19049;52.524;11.468;2022-07-29T05:20:33;16.50;72.70
32640;DHT22;19049;52.524;11.468;2022-07-29T05:23:23;16.50;72.40
32640;DHT22;19049;52.524;11.468;2022-07-29T05:25:49;16.70;72.90
32640;DHT22;19049;52.524;11.468;2022-07-29T05:28:24;16.80;72.30
32640;DHT22;19049;52.524;11.468;2022-07-29T05:30:53;16.90;72.60
32640;DHT22;19049;52.524;11.468;2022-07-29T05:33:28;17.00;72.40
32640;DHT22;19049;52.524;11.468;2022-07-29T05:35:56;17.10;72.40
32640;DHT22;19049;52.524;11.468;2022-07-29T05:38:32;17.30;72.10
32640;DHT22;19049;52.524;11.468;2022-07-29T05:41:19;17.40;71.80
32640;DHT22;19049;52.524;11.468;2022-07-29T05:44:34;17.60;71.60
32640;DHT22;19049;52.524;11.468;2022-07-29T05:47:03;17.70;71.30
32640;DHT22;19049;52.524;11.468;2022-07-29T05:52:56;18.00;70.70
32640;DHT22;19049;52.524;11.468;2022-07-29T05:55:42;18.20;70.40
32640;DHT22;19049;52.524;11.468;2022-07-29T05:58:17;18.40;70.20
32640;DHT22;19049;52.524;11.468;2022-07-29T06:01:10;18.50;69.80
32640;DHT22;19049;52.524;11.468;2022-07-29T06:04:03;18.70;69.20
32640;DHT22;19049;52.524;11.468;2022-07-29T06:06:29;18.90;68.80
32640;DHT22;19049;52.524;11.468;2022-07-29T06:09:06;18.90;68.40
32640;DHT22;19049;52.524;11.468;2022-07-29T06:11:40;19.00;68.90
32640;DHT22;19049;52.524;11.468;2022-07-29T06:14:35;19.10;67.90
32640;DHT22;19049;52.524;11.468;2022-07-29T06:17:04;19.20;67.50
32640;DHT22;19049;52.524;11.468;2022-07-29T06:19:30;19.20;67.20
32640;DHT22;19049;52.524;11.468;2022-07-29T06:21:56;19.30;67.20
32640;DHT22;19049;52.524;11.468;2022-07-29T06:24:29;19.40;67.20
32640;DHT22;19049;52.524;11.468;2022-07-29T06:26:54;19.40;67.30
32640;DHT22;19049;52.524;11.468;2022-07-29T06:29:25;19.50;67.30
32640;DHT22;19049;52.524;11.468;2022-07-29T06:32:13;19.70;67.30
32640;DHT22;19049;52.524;11.468;2022-07-29T06:34:41;19.80;67.30
32640;DHT22;19049;52.524;11.468;2022-07-29T06:37:12;20.10;67.50
32640;DHT22;19049;52.524;11.468;2022-07-29T06:39:45;20.30;66.60
32640;DHT22;19049;52.524;11.468;2022-07-29T06:42:39;20.60;66.30
32640;DHT22;19049;52.524;11.468;2022-07-29T06:48:16;21.10;99.90
32640;DHT22;19049;52.524;11.468;2022-07-29T06:50:47;21.50;66.30
32640;DHT22;19049;52.524;11.468;2022-07-29T06:53:25;21.90;65.30
32640;DHT22;19049;52.524;11.468;2022-07-29T06:59:00;22.70;64.20
32640;DHT22;19049;52.524;11.468;2022-07-29T07:01:46;23.20;62.90
32640;DHT22;19049;52.524;11.468;2022-07-29T07:04:35;23.60;62.30
32640;DHT22;19049;52.524;11.468;2022-07-29T07:07:03;24.00;61.70
32640;DHT22;19049;52.524;11.468;2022-07-29T07:09:34;24.40;59.30
32640;DHT22;19049;52.524;11.468;2022-07-29T07:12:22;24.70;59.10
32640;DHT22;19049;52.524;11.468;2022-07-29T07:14:58;25.10;57.20
32640;DHT22;19049;52.524;11.468;2022-07-29T07:17:24;25.30;57.30
32640;DHT22;19049;52.524;11.468;2022-07-29T07:19:50;25.50;57.10
32640;DHT22;19049;52.524;11.468;2022-07-29T07:22:18;25.50;55.80
32640;DHT22;19049;52.524;11.468;2022-07-29T07:24:44;25.60;54.90
32640;DHT22;19049;52.524;11.468;2022-07-29T07:27:27;25.50;53.90
32640;DHT22;19049;52.524;11.468;2022-07-29T07:29:59;25.40;53.70
32640;DHT22;19049;52.524;11.468;2022-07-29T07:32:27;25.20;53.20
32640;DHT22;19049;52.524;11.468;2022-07-29T07:35:07;25.00;53.20
32640;DHT22;19049;52.524;11.468;2022-07-29T07:37:33;24.80;52.90
32640;DHT22;19049;52.524;11.468;2022-07-29T07:40:08;24.60;53.20
32640;DHT22;19049;52.524;11.468;2022-07-29T07:42:37;24.40;53.40
32640;DHT22;19049;52.524;11.468;2022-07-29T07:45:03;24.20;53.70
32640;DHT22;19049;52.524;11.468;2022-07-29T07:47:50;24.00;54.10
32640;DHT22;19049;52.524;11.468;2022-07-29T07:50:42;23.80;54.30
32640;DHT22;19049;52.524;11.468;2022-07-29T08:03:24;23.40;55.00
32640;DHT22;19049;52.524;11.468;2022-07-29T08:05:55;23.30;55.10
32640;DHT22;19049;52.524;11.468;2022-07-29T08:08:23;23.30;55.40
32640;DHT22;19049;52.524;11.468;2022-07-29T08:10:52;23.30;55.50
32640;DHT22;19049;52.524;11.468;2022-07-29T08:13:19;23.40;55.50
32640;DHT22;19049;52.524;11.468;2022-07-29T08:15:52;23.50;56.00
32640;DHT22;19049;52.524;11.468;2022-07-29T08:18:56;23.80;56.20
32640;DHT22;19049;52.524;11.468;2022-07-29T08:24:37;24.60;54.70
32640;DHT22;19049;52.524;11.468;2022-07-29T08:27:13;25.00;54.90
32640;DHT22;19049;52.524;11.468;2022-07-29T08:29:39;25.40;55.00
32640;DHT22;19049;52.524;11.468;2022-07-29T08:32:07;25.80;54.30
32640;DHT22;19049;52.524;11.468;2022-07-29T08:34:33;26.30;54.10
32640;DHT22;19049;52.524;11.468;2022-07-29T08:37:04;26.70;53.20
32640;DHT22;19049;52.524;11.468;2022-07-29T08:39:39;27.10;51.20
32640;DHT22;19049;52.524;11.468;2022-07-29T08:42:07;27.40;50.40
32640;DHT22;19049;52.524;11.468;2022-07-29T08:44:33;27.70;50.40
32640;DHT22;19049;52.524;11.468;2022-07-29T08:47:03;27.90;49.50
32640;DHT22;19049;52.524;11.468;2022-07-29T08:49:47;28.20;49.10
32640;DHT22;19049;52.524;11.468;2022-07-29T08:55:50;28.70;48.30
32640;DHT22;19049;52.524;11.468;2022-07-29T08:58:53;29.00;46.80
32640;DHT22;19049;52.524;11.468;2022-07-29T09:01:27;29.30;47.10
32640;DHT22;19049;52.524;11.468;2022-07-29T09:04:17;29.40;45.60
32640;DHT22;19049;52.524;11.468;2022-07-29T09:07:21;29.60;44.70
32640;DHT22;19049;52.524;11.468;2022-07-29T09:09:50;29.70;45.30
32640;DHT22;19049;52.524;11.468;2022-07-29T09:12:18;29.90;45.20
32640;DHT22;19049;52.524;11.468;2022-07-29T09:14:44;30.00;44.60
32640;DHT22;19049;52.524;11.468;2022-07-29T09:17:10;30.20;44.20
32640;DHT22;19049;52.524;11.468;2022-07-29T09:19:43;30.30;43.00
32640;DHT22;19049;52.524;11.468;2022-07-29T09:22:09;30.30;42.60
32640;DHT22;19049;52.524;11.468;2022-07-29T09:24:44;30.30;41.20
32640;DHT22;19049;52.524;11.468;2022-07-29T09:27:27;30.10;41.10
32640;DHT22;19049;52.524;11.468;2022-07-29T09:30:15;30.00;40.60
32640;DHT22;19049;52.524;11.468;2022-07-29T09:36:07;29.90;41.90
32640;DHT22;19049;52.524;11.468;2022-07-29T09:41:30;30.00;41.40
32640;DHT22;19049;52.524;11.468;2022-07-29T09:44:22;30.00;40.90
32640;DHT22;19049;52.524;11.468;2022-07-29T09:47:08;30.10;40.80
32640;DHT22;19049;52.524;11.468;2022-07-29T09:49:49;30.00;41.10
32640;DHT22;19049;52.524;11.468;2022-07-29T09:52:49;30.00;41.60
32640;DHT22;19049;52.524;11.468;2022-07-29T09:55:51;30.10;40.60
32640;DHT22;19049;52.524;11.468;2022-07-29T09:58:32;30.10;39.90
32640;DHT22;19049;52.524;11.468;2022-07-29T10:01:19;30.20;40.00
32640;DHT22;19049;52.524;11.468;2022-07-29T10:04:21;30.30;41.00
32640;DHT22;19049;52.524;11.468;2022-07-29T10:07:05;30.40;39.90
32640;DHT22;19049;52.524;11.468;2022-07-29T10:10:10;30.60;40.70
32640;DHT22;19049;52.524;11.468;2022-07-29T10:13:01;30.90;38.90
32640;DHT22;19049;52.524;11.468;2022-07-29T10:15:53;30.90;39.20
32640;DHT22;19049;52.524;11.468;2022-07-29T10:18:49;31.00;39.00
32640;DHT22;19049;52.524;11.468;2022-07-29T10:21:19;31.10;38.40
32640;DHT22;19049;52.524;11.468;2022-07-29T10:23:47;31.20;38.90
32640;DHT22;19049;52.524;11.468;2022-07-29T10:26:15;31.30;37.60
32640;DHT22;19049;52.524;11.468;2022-07-29T10:29:02;31.50;38.10
32640;DHT22;19049;52.524;11.468;2022-07-29T10:32:02;31.60;37.60
32640;DHT22;19049;52.524;11.468;2022-07-29T10:43:33;31.90;35.20
32640;DHT22;19049;52.524;11.468;2022-07-29T10:46:21;32.00;34.60
32640;DHT22;19049;52.524;11.468;2022-07-29T10:59:45;32.00;34.60
32640;DHT22;19049;52.524;11.468;2022-07-29T11:02:44;32.00;34.20
32640;DHT22;19049;52.524;11.468;2022-07-29T11:05:18;32.10;32.40
32640;DHT22;19049;52.524;11.468;2022-07-29T11:08:20;32.10;33.30
32640;DHT22;19049;52.524;11.468;2022-07-29T11:10:49;32.10;33.40
32640;DHT22;19049;52.524;11.468;2022-07-29T11:13:46;32.30;33.60
32640;DHT22;19049;52.524;11.468;2022-07-29T11:16:14;32.30;31.90
32640;DHT22;19049;52.524;11.468;2022-07-29T11:21:38;32.30;31.90
32640;DHT22;19049;52.524;11.468;2022-07-29T11:24:23;32.30;32.40
32640;DHT22;19049;52.524;11.468;2022-07-29T11:34:23;32.10;32.70
32640;DHT22;19049;52.524;11.468;2022-07-29T11:40:26;32.10;32.10
32640;DHT22;19049;52.524;11.468;2022-07-29T11:43:01;32.10;31.70
32640;DHT22;19049;52.524;11.468;2022-07-29T11:45:53;32.10;32.50
32640;DHT22;19049;52.524;11.468;2022-07-29T11:49:05;32.20;32.30
32640;DHT22;19049;52.524;11.468;2022-07-29T11:51:39;32.30;30.70
32640;DHT22;19049;52.524;11.468;2022-07-29T11:58:06;32.20;32.10
32640;DHT22;19049;52.524;11.468;2022-07-29T12:00:38;32.20;32.40
32640;DHT22;19049;52.524;11.468;2022-07-29T12:03:12;32.30;32.10
32640;DHT22;19049;52.524;11.468;2022-07-29T12:05:51;32.40;32.80
32640;DHT22;19049;52.524;11.468;2022-07-29T12:08:22;32.60;31.90
32640;DHT22;19049;52.524;11.468;2022-07-29T12:11:14;32.70;31.90
32640;DHT22;19049;52.524;11.468;2022-07-29T12:14:06;32.80;31.80
32640;DHT22;19049;52.524;11.468;2022-07-29T12:16:35;33.00;29.90
32640;DHT22;19049;52.524;11.468;2022-07-29T12:19:09;33.00;30.50
32640;DHT22;19049;52.524;11.468;2022-07-29T12:22:31;33.00;30.90
32640;DHT22;19049;52.524;11.468;2022-07-29T12:25:37;33.00;30.90
32640;DHT22;19049;52.524;11.468;2022-07-29T12:28:10;32.90;31.20
32640;DHT22;19049;52.524;11.468;2022-07-29T12:31:03;32.80;30.60
32640;DHT22;19049;52.524;11.468;2022-07-29T12:34:00;32.70;31.30
32640;DHT22;19049;52.524;11.468;2022-07-29T12:36:46;32.60;30.20
32640;DHT22;19049;52.524;11.468;2022-07-29T12:42:35;32.60;30.50
32640;DHT22;19049;52.524;11.468;2022-07-29T12:45:08;32.60;30.40
32640;DHT22;19049;52.524;11.468;2022-07-29T12:47:51;32.60;30.00
32640;DHT22;19049;52.524;11.468;2022-07-29T12:50:17;32.70;30.60
32640;DHT22;19049;52.524;11.468;2022-07-29T12:52:45;32.80;30.40
32640;DHT22;19049;52.524;11.468;2022-07-29T12:55:14;32.90;30.40
32640;DHT22;19049;52.524;11.468;2022-07-29T12:57:50;33.10;30.70
32640;DHT22;19049;52.524;11.468;2022-07-29T13:00:22;33.30;30.00
32640;DHT22;19049;52.524;11.468;2022-07-29T13:02:56;33.60;29.70
32640;DHT22;19049;52.524;11.468;2022-07-29T13:05:37;33.80;29.60
32640;DHT22;19049;52.524;11.468;2022-07-29T13:08:17;34.10;29.40
32640;DHT22;19049;52.524;11.468;2022-07-29T13:10:52;34.20;28.60
32640;DHT22;19049;52.524;11.468;2022-07-29T13:13:49;34.30;28.40
32640;DHT22;19049;52.524;11.468;2022-07-29T13:16:15;34.30;27.90
32640;DHT22;19049;52.524;11.468;2022-07-29T13:18:54;34.30;28.10
32640;DHT22;19049;52.524;11.468;2022-07-29T13:21:30;34.30;28.30
32640;DHT22;19049;52.524;11.468;2022-07-29T13:23:59;34.30;28.20
32640;DHT22;19049;52.524;11.468;2022-07-29T13:26:32;34.20;28.20
32640;DHT22;19049;52.524;11.468;2022-07-29T13:29:09;34.10;27.60
32640;DHT22;19049;52.524;11.468;2022-07-29T13:31:41;34.00;27.40
32640;DHT22;19049;52.524;11.468;2022-07-29T13:34:06;33.90;27.70
32640;DHT22;19049;52.524;11.468;2022-07-29T13:36:32;33.70;27.70
32640;DHT22;19049;52.524;11.468;2022-07-29T13:38:58;33.50;28.00
32640;DHT22;19049;52.524;11.468;2022-07-29T13:41:34;33.40;27.90
32640;DHT22;19049;52.524;11.468;2022-07-29T13:43:59;33.20;27.70
32640;DHT22;19049;52.524;11.468;2022-07-29T13:46:37;33.20;27.90
32640;DHT22;19049;52.524;11.468;2022-07-29T13:49:02;33.10;28.10
32640;DHT22;19049;52.524;11.468;2022-07-29T13:54:32;33.10;28.20
32640;DHT22;19049;52.524;11.468;2022-07-29T13:57:04;33.10;27.80
32640;DHT22;19049;52.524;11.468;2022-07-29T14:00:00;33.00;28.50
32640;DHT22;19049;52.524;11.468;2022-07-29T14:02:34;33.00;27.80
32640;DHT22;19049;52.524;11.468;2022-07-29T14:08:14;32.80;28.10
32640;DHT22;19049;52.524;11.468;2022-07-29T14:10:39;32.80;28.60
32640;DHT22;19049;52.524;11.468;2022-07-29T14:13:23;32.80;28.90
32640;DHT22;19049;52.524;11.468;2022-07-29T14:15:51;32.80;27.90
32640;DHT22;19049;52.524;11.468;2022-07-29T14:18:19;32.80;28.30
32640;DHT22;19049;52.524;11.468;2022-07-29T14:21:15;32.90;28.50
32640;DHT22;19049;52.524;11.468;2022-07-29T14:23:41;32.90;28.30
32640;DHT22;19049;52.524;11.468;2022-07-29T14:26:10;33.00;28.60
32640;DHT22;19049;52.524;11.468;2022-07-29T14:28:48;33.00;28.20
32640;DHT22;19049;52.524;11.468;2022-07-29T14:31:15;33.10;27.90
32640;DHT22;19049;52.524;11.468;2022-07-29T14:33:40;33.00;27.90
32640;DHT22;19049;52.524;11.468;2022-07-29T14:36:08;32.80;27.90
32640;DHT22;19049;52.524;11.468;2022-07-29T14:38:35;32.70;28.30
32640;DHT22;19049;52.524;11.468;2022-07-29T14:41:14;32.60;28.10
32640;DHT22;19049;52.524;11.468;2022-07-29T14:43:42;32.60;28.10
32640;DHT22;19049;52.524;11.468;2022-07-29T14:46:07;32.50;28.30
32640;DHT22;19049;52.524;11.468;2022-07-29T14:48:35;32.40;28.10
32640;DHT22;19049;52.524;11.468;2022-07-29T14:51:16;32.30;28.10
32640;DHT22;19049;52.524;11.468;2022-07-29T14:53:41;32.20;28.30
32640;DHT22;19049;52.524;11.468;2022-07-29T14:56:07;32.00;28.40
32640;DHT22;19049;52.524;11.468;2022-07-29T14:58:48;32.00;28.60
32640;DHT22;19049;52.524;11.468;2022-07-29T15:01:14;31.80;28.60
32640;DHT22;19049;52.524;11.468;2022-07-29T15:04:00;31.70;28.60
32640;DHT22;19049;52.524;11.468;2022-07-29T15:06:29;31.60;28.80
32640;DHT22;19049;52.524;11.468;2022-07-29T15:08:57;31.40;28.90
32640;DHT22;19049;52.524;11.468;2022-07-29T15:11:23;31.30;28.90
32640;DHT22;19049;52.524;11.468;2022-07-29T15:13:48;31.20;29.20
32640;DHT22;19049;52.524;11.468;2022-07-29T15:16:14;31.20;29.40
32640;DHT22;19049;52.524;11.468;2022-07-29T15:18:40;31.10;29.30
32640;DHT22;19049;52.524;11.468;2022-07-29T15:21:05;31.20;29.30
32640;DHT22;19049;52.524;11.468;2022-07-29T15:23:32;31.20;29.20
32640;DHT22;19049;52.524;11.468;2022-07-29T15:26:00;31.20;29.30
32640;DHT22;19049;52.524;11.468;2022-07-29T15:28:26;31.20;29.10
32640;DHT22;19049;52.524;11.468;2022-07-29T15:30:52;31.20;29.40
32640;DHT22;19049;52.524;11.468;2022-07-29T15:33:18;31.20;29.40
32640;DHT22;19049;52.524;11.468;2022-07-29T15:36:02;31.30;29.30
32640;DHT22;19049;52.524;11.468;2022-07-29T15:41:42;31.40;29.40
32640;DHT22;19049;52.524;11.468;2022-07-29T15:47:46;31.40;29.00
32640;DHT22;19049;52.524;11.468;2022-07-29T15:50:15;31.40;29.20
32640;DHT22;19049;52.524;11.468;2022-07-29T15:53:04;31.30;29.30
32640;DHT22;19049;52.524;11.468;2022-07-29T15:59:43;31.30;29.20
32640;DHT22;19049;52.524;11.468;2022-07-29T16:01:52;31.40;29.40
32640;DHT22;19049;52.524;11.468;2022-07-29T16:04:38;31.40;29.10
32640;DHT22;19049;52.524;11.468;2022-07-29T16:07:27;31.40;29.30
32640;DHT22;19049;52.524;11.468;2022-07-29T16:10:06;31.40;29.20
32640;DHT22;19049;52.524;11.468;2022-07-29T16:12:52;31.30;29.30
32640;DHT22;19049;52.524;11.468;2022-07-29T16:15:18;31.30;29.40
32640;DHT22;19049;52.524;11.468;2022-07-29T16:17:49;31.20;29.40
32640;DHT22;19049;52.524;11.468;2022-07-29T16:20:23;31.20;29.40
32640;DHT22;19049;52.524;11.468;2022-07-29T16:22:48;31.10;29.60
32640;DHT22;19049;52.524;11.468;2022-07-29T16:25:14;31.00;29.50
32640;DHT22;19049;52.524;11.468;2022-07-29T16:27:40;31.00;29.40
32640;DHT22;19049;52.524;11.468;2022-07-29T16:30:06;30.80;29.50
32640;DHT22;19049;52.524;11.468;2022-07-29T16:32:35;30.80;29.40
32640;DHT22;19049;52.524;11.468;2022-07-29T16:35:01;30.70;29.50
32640;DHT22;19049;52.524;11.468;2022-07-29T16:37:29;30.70;29.70
32640;DHT22;19049;52.524;11.468;2022-07-29T16:40:04;30.60;29.90
32640;DHT22;19049;52.524;11.468;2022-07-29T16:42:33;30.60;29.90
32640;DHT22;19049;52.524;11.468;2022-07-29T16:45:08;30.50;29.90
32640;DHT22;19049;52.524;11.468;2022-07-29T16:47:43;30.50;29.80
32640;DHT22;19049;52.524;11.468;2022-07-29T16:51:03;30.50;30.40
32640;DHT22;19049;52.524;11.468;2022-07-29T16:53:48;30.40;30.00
32640;DHT22;19049;52.524;11.468;2022-07-29T16:56:24;30.30;29.90
32640;DHT22;19049;52.524;11.468;2022-07-29T16:58:50;30.30;30.60
32640;DHT22;19049;52.524;11.468;2022-07-29T17:01:16;30.30;30.10
32640;DHT22;19049;52.524;11.468;2022-07-29T17:03:42;30.20;30.20
32640;DHT22;19049;52.524;11.468;2022-07-29T17:06:28;30.10;30.30
32640;DHT22;19049;52.524;11.468;2022-07-29T17:08:56;30.00;30.40
32640;DHT22;19049;52.524;11.468;2022-07-29T17:11:26;30.00;30.70
32640;DHT22;19049;52.524;11.468;2022-07-29T17:13:57;29.90;30.70
32640;DHT22;19049;52.524;11.468;2022-07-29T17:16:32;29.90;30.80
32640;DHT22;19049;52.524;11.468;2022-07-29T17:18:57;29.70;30.90
32640;DHT22;19049;52.524;11.468;2022-07-29T17:21:23;29.70;31.00
32640;DHT22;19049;52.524;11.468;2022-07-29T17:23:52;29.70;31.10
32640;DHT22;19049;52.524;11.468;2022-07-29T17:26:23;29.60;31.10
32640;DHT22;19049;52.524;11.468;2022-07-29T17:28:49;29.60;31.20
32640;DHT22;19049;52.524;11.468;2022-07-29T17:31:15;29.50;31.40
32640;DHT22;19049;52.524;11.468;2022-07-29T17:33:43;29.50;31.50
32640;DHT22;19049;52.524;11.468;2022-07-29T17:36:09;29.50;31.60
32640;DHT22;19049;52.524;11.468;2022-07-29T17:38:52;29.60;31.80
32640;DHT22;19049;52.524;11.468;2022-07-29T17:41:38;29.70;31.50
32640;DHT22;19049;52.524;11.468;2022-07-29T17:44:23;29.80;31.40
32640;DHT22;19049;52.524;11.468;2022-07-29T17:46:48;29.90;31.20
32640;DHT22;19049;52.524;11.468;2022-07-29T17:49:14;29.90;31.30
32640;DHT22;19049;52.524;11.468;2022-07-29T17:51:51;29.90;31.40